(°C)
11°
10°
10°
10°
(°C)
З
З
З
З
З
З
З
(km/h)
14-28
15-28
15-28
15-26
15-27
16-27
17-30
(mm)
0
0
0
0
0
0
0
(%)
0
0
0
0
4
0
0

Издигане на слънцето

/ -40.7°
sun-icon
UV 2
07:24
18:58
Първа четвърт на луната (97°)
16:42
23:28

METAR за Bordenau (ETNW)

Час Условия Температура/
Точка на оросяване
Вятър Видимост Времето Облаци Налягане Промяна Сурови
VFR 11°C / 10°C 270º 8kt >10km - Few Clouds 2800ft 1020 - ETNW 022120Z 27008KT 9999 FEW028 11/10 Q1020 BLU+
VFR 12°C / 10°C 290º 9kt >10km - Few Clouds 2800ft 1020 - ETNW 022020Z 29009KT 9999 FEW028 12/10 Q1020 BLU+
VFR 12°C / 10°C 290º 10kt >10km - Few Clouds 2800ft 1019 - ETNW 021920Z 29010KT 9999 FEW028 12/10 Q1019 BLU+
VFR 13°C / 9°C 290º 7kt >10km - Few Clouds 2000ft 1018 - ETNW 021820Z 29007KT 9999 FEW020 13/09 Q1018 BLU+
VFR 13°C / 9°C 290º 7kt >10km - Few Clouds 2000ft 1017 - ETNW 021720Z 29007KT 9999 FEW020 13/09 Q1017 BLU+
VFR 14°C / 10°C 280º 7kt >10km - Few Clouds 2000ft
Scattered Clouds 6000ft
1016 - ETNW 021620Z 28007KT 9999 FEW020 SCT060 14/10 Q1016 BLU+
VFR 14°C / 10°C 290º 9kt >10km - Few Clouds 1500ft
Few Clouds 2000ft
Scattered Clouds 6000ft
1016 - ETNW 021520Z 29009KT 9999 FEW015 FEW020CB SCT060 14/10 Q1016 BLU+
VFR 14°C / 11°C 320º 14kt Gust 24kt >10km in the Vicinity Showers Vertical Visibility of 0ft.
Scattered Clouds 2000ft
Broken Clouds 6000ft
1016 - ETNW 021450Z 32014G24KT 9999 VCSH FEW015 SCT020CB BKN060 14/11 Q1016 BLU
MVFR 15°C / 10°C 300º 14kt Gust 28kt 9000m Light Showers Rain 3.00mm precipitation Vertical Visibility of 0ft.
Broken Clouds 2000ft
1016 - ETNW 021440Z 30014G28KT 9000 -SHRA FEW015 BKN020CB 15/10 Q1016 WHT
VFR 17°C / 11°C 290º 12kt >10km in the Vicinity Showers Vertical Visibility of 0ft.
Broken Clouds 7500ft
1015 - ETNW 021420Z 29012KT 9999 VCSH FEW028CB BKN075 17/11 Q1015 BLU
VFR 15°C / 12°C 280º 9kt >10km - Few Clouds 1500ft
Scattered Clouds 8000ft
1015 - ETNW 021320Z 28009KT 9999 FEW015 SCT080 15/12 Q1015 BLU+
VFR 15°C / 13°C 300º 13kt 9000m in the Vicinity Showers Vertical Visibility of 0ft.
Few Clouds 2000ft
Scattered Clouds 10000ft
1015 - ETNW 021220Z 30013KT 9000 VCSH FEW010 FEW020CB SCT100 15/13 Q1015 BLU+
MVFR 14°C / 12°C 320º 12kt 8000m Light Showers Rain 3.00mm precipitation Vertical Visibility of 0ft.
Broken Clouds 2500ft
1015 - ETNW 021120Z 32012KT 8000 -SHRA FEW015 BKN025TCU 14/12 Q1015 RESHRA BLU
MVFR 15°C / 11°C 300º 15kt 6000m Showers Rain 3.00mm precipitation Vertical Visibility of 0ft.
Broken Clouds 2500ft
1015 - ETNW 021110Z 30015KT 6000 SHRA FEW015 BKN025TCU 15/11 Q1015 WHT
VFR 17°C / 11°C 290º 13kt >10km - Scattered Clouds 2400ft
Scattered Clouds 27000ft
1014 - ETNW 021020Z 29013KT 9999 SCT024 SCT270 17/11 Q1014 BLU+
VFR 15°C / 11°C 280º 13kt >10km - Scattered Clouds 1600ft
Scattered Clouds 27000ft
1014 - ETNW 020920Z 28013KT 9999 SCT016 SCT270 15/11 Q1014 BLU+
VFR 14°C / 12°C 270º 12kt >10km - Scattered Clouds 1400ft 1014 - ETNW 020820Z 27012KT 9999 SCT014 14/12 Q1014 BLU+
VFR 13°C / 12°C 260º 10kt >10km - Few Clouds 3000ft
Scattered Clouds 7000ft
1013 - ETNW 020720Z 26010KT 9999 FEW030 SCT070 13/12 Q1013 BLU+
VFR 12°C / 11°C 250º 10kt >10km - Few Clouds 3000ft
Broken Clouds 7000ft
1012 - ETNW 020620Z 25010KT 9999 FEW030 BKN070 12/11 Q1012 BLU
VFR 12°C / 11°C 250º 11kt >10km - Few Clouds 3000ft
Scattered Clouds 10000ft
1012 - ETNW 020520Z 25011KT 9999 FEW030TCU SCT100 12/11 Q1012 BLU+
VFR 12°C / 11°C 250º 13kt 9000m Light Showers Rain 3.00mm precipitation Vertical Visibility of 0ft.
Scattered Clouds 3000ft
Broken Clouds 6000ft
1012 - ETNW 020450Z 25013KT 9000 -SHRA FEW010 SCT030TCU BKN060 12/11 Q1012 BLU
MVFR 12°C / 11°C 260º 12kt 7000m Light Showers Rain 3.00mm precipitation Vertical Visibility of 0ft.
Broken Clouds 3000ft
1012 - ETNW 020435Z 26012KT 7000 -SHRA FEW010 BKN030TCU 12/11 Q1012 WHT
VFR 12°C / 11°C 260º 12kt >10km Light Showers Rain 3.00mm precipitation Vertical Visibility of 0ft.
Broken Clouds 8000ft
1012 - ETNW 020420Z 26012KT 9999 -SHRA SCT030TCU BKN080 12/11 Q1012 BLU
VFR 12°C / 11°C 260º 11kt >10km - Broken Clouds 7600ft 1012 - ETNW 020320Z 26011KT 9999 BKN076 12/11 Q1012 BLU

VFR

11°C / 10°C

[Още]
Вятър 270º 8kt
Видимост >10km
Времето -
Облаци Few Clouds 2800ft
Налягане 1020
Промяна -
Сурови ETNW 022120Z 27008KT 9999 FEW028 11/10 Q1020 BLU+

VFR

12°C / 10°C

[Още]
Вятър 290º 9kt
Видимост >10km
Времето -
Облаци Few Clouds 2800ft
Налягане 1020
Промяна -
Сурови ETNW 022020Z 29009KT 9999 FEW028 12/10 Q1020 BLU+

VFR

12°C / 10°C

[Още]
Вятър 290º 10kt
Видимост >10km
Времето -
Облаци Few Clouds 2800ft
Налягане 1019
Промяна -
Сурови ETNW 021920Z 29010KT 9999 FEW028 12/10 Q1019 BLU+

VFR

13°C / 9°C

[Още]
Вятър 290º 7kt
Видимост >10km
Времето -
Облаци Few Clouds 2000ft
Налягане 1018
Промяна -
Сурови ETNW 021820Z 29007KT 9999 FEW020 13/09 Q1018 BLU+

VFR

13°C / 9°C

[Още]
Вятър 290º 7kt
Видимост >10km
Времето -
Облаци Few Clouds 2000ft
Налягане 1017
Промяна -
Сурови ETNW 021720Z 29007KT 9999 FEW020 13/09 Q1017 BLU+

VFR

14°C / 10°C

[Още]
Вятър 280º 7kt
Видимост >10km
Времето -
Облаци Few Clouds 2000ft
Scattered Clouds 6000ft
Налягане 1016
Промяна -
Сурови ETNW 021620Z 28007KT 9999 FEW020 SCT060 14/10 Q1016 BLU+

VFR

14°C / 10°C

[Още]
Вятър 290º 9kt
Видимост >10km
Времето -
Облаци Few Clouds 1500ft
Few Clouds 2000ft
Scattered Clouds 6000ft
Налягане 1016
Промяна -
Сурови ETNW 021520Z 29009KT 9999 FEW015 FEW020CB SCT060 14/10 Q1016 BLU+

VFR

14°C / 11°C

[Още]
Вятър 320º 14kt Gust 24kt
Видимост >10km
Времето in the Vicinity Showers
Облаци Vertical Visibility of 0ft.
Scattered Clouds 2000ft
Broken Clouds 6000ft
Налягане 1016
Промяна -
Сурови ETNW 021450Z 32014G24KT 9999 VCSH FEW015 SCT020CB BKN060 14/11 Q1016 BLU

MVFR

15°C / 10°C

[Още]
Вятър 300º 14kt Gust 28kt
Видимост 9000m
Времето Light Showers Rain 3.00mm precipitation
Облаци Vertical Visibility of 0ft.
Broken Clouds 2000ft
Налягане 1016
Промяна -
Сурови ETNW 021440Z 30014G28KT 9000 -SHRA FEW015 BKN020CB 15/10 Q1016 WHT

VFR

17°C / 11°C

[Още]
Вятър 290º 12kt
Видимост >10km
Времето in the Vicinity Showers
Облаци Vertical Visibility of 0ft.
Broken Clouds 7500ft
Налягане 1015
Промяна -
Сурови ETNW 021420Z 29012KT 9999 VCSH FEW028CB BKN075 17/11 Q1015 BLU

VFR

15°C / 12°C

[Още]
Вятър 280º 9kt
Видимост >10km
Времето -
Облаци Few Clouds 1500ft
Scattered Clouds 8000ft
Налягане 1015
Промяна -
Сурови ETNW 021320Z 28009KT 9999 FEW015 SCT080 15/12 Q1015 BLU+

VFR

15°C / 13°C

[Още]
Вятър 300º 13kt
Видимост 9000m
Времето in the Vicinity Showers
Облаци Vertical Visibility of 0ft.
Few Clouds 2000ft
Scattered Clouds 10000ft
Налягане 1015
Промяна -
Сурови ETNW 021220Z 30013KT 9000 VCSH FEW010 FEW020CB SCT100 15/13 Q1015 BLU+

MVFR

14°C / 12°C

[Още]
Вятър 320º 12kt
Видимост 8000m
Времето Light Showers Rain 3.00mm precipitation
Облаци Vertical Visibility of 0ft.
Broken Clouds 2500ft
Налягане 1015
Промяна -
Сурови ETNW 021120Z 32012KT 8000 -SHRA FEW015 BKN025TCU 14/12 Q1015 RESHRA BLU

MVFR

15°C / 11°C

[Още]
Вятър 300º 15kt
Видимост 6000m
Времето Showers Rain 3.00mm precipitation
Облаци Vertical Visibility of 0ft.
Broken Clouds 2500ft
Налягане 1015
Промяна -
Сурови ETNW 021110Z 30015KT 6000 SHRA FEW015 BKN025TCU 15/11 Q1015 WHT

VFR

17°C / 11°C

[Още]
Вятър 290º 13kt
Видимост >10km
Времето -
Облаци Scattered Clouds 2400ft
Scattered Clouds 27000ft
Налягане 1014
Промяна -
Сурови ETNW 021020Z 29013KT 9999 SCT024 SCT270 17/11 Q1014 BLU+

VFR

15°C / 11°C

[Още]
Вятър 280º 13kt
Видимост >10km
Времето -
Облаци Scattered Clouds 1600ft
Scattered Clouds 27000ft
Налягане 1014
Промяна -
Сурови ETNW 020920Z 28013KT 9999 SCT016 SCT270 15/11 Q1014 BLU+

VFR

14°C / 12°C

[Още]
Вятър 270º 12kt
Видимост >10km
Времето -
Облаци Scattered Clouds 1400ft
Налягане 1014
Промяна -
Сурови ETNW 020820Z 27012KT 9999 SCT014 14/12 Q1014 BLU+

VFR

13°C / 12°C

[Още]
Вятър 260º 10kt
Видимост >10km
Времето -
Облаци Few Clouds 3000ft
Scattered Clouds 7000ft
Налягане 1013
Промяна -
Сурови ETNW 020720Z 26010KT 9999 FEW030 SCT070 13/12 Q1013 BLU+

VFR

12°C / 11°C

[Още]
Вятър 250º 10kt
Видимост >10km
Времето -
Облаци Few Clouds 3000ft
Broken Clouds 7000ft
Налягане 1012
Промяна -
Сурови ETNW 020620Z 25010KT 9999 FEW030 BKN070 12/11 Q1012 BLU

VFR

12°C / 11°C

[Още]
Вятър 250º 11kt
Видимост >10km
Времето -
Облаци Few Clouds 3000ft
Scattered Clouds 10000ft
Налягане 1012
Промяна -
Сурови ETNW 020520Z 25011KT 9999 FEW030TCU SCT100 12/11 Q1012 BLU+

VFR

12°C / 11°C

[Още]
Вятър 250º 13kt
Видимост 9000m
Времето Light Showers Rain 3.00mm precipitation
Облаци Vertical Visibility of 0ft.
Scattered Clouds 3000ft
Broken Clouds 6000ft
Налягане 1012
Промяна -
Сурови ETNW 020450Z 25013KT 9000 -SHRA FEW010 SCT030TCU BKN060 12/11 Q1012 BLU

MVFR

12°C / 11°C

[Още]
Вятър 260º 12kt
Видимост 7000m
Времето Light Showers Rain 3.00mm precipitation
Облаци Vertical Visibility of 0ft.
Broken Clouds 3000ft
Налягане 1012
Промяна -
Сурови ETNW 020435Z 26012KT 7000 -SHRA FEW010 BKN030TCU 12/11 Q1012 WHT

VFR

12°C / 11°C

[Още]
Вятър 260º 12kt
Видимост >10km
Времето Light Showers Rain 3.00mm precipitation
Облаци Vertical Visibility of 0ft.
Broken Clouds 8000ft
Налягане 1012
Промяна -
Сурови ETNW 020420Z 26012KT 9999 -SHRA SCT030TCU BKN080 12/11 Q1012 BLU

VFR

12°C / 11°C

[Още]
Вятър 260º 11kt
Видимост >10km
Времето -
Облаци Broken Clouds 7600ft
Налягане 1012
Промяна -
Сурови ETNW 020320Z 26011KT 9999 BKN076 12/11 Q1012 BLU

TAF за Bordenau (ETNW)

From till


From till Wind 280º 10kt. Visibility 10km or more. Few Clouds 2500ft.

Сурови: TAF ETNW 021603Z 0217/0317 28010KT 9999 NSW FEW025 BY ETGL

rainNOW: Дъжд в момента за Bordenau и околности (радиус 25 км)

0.0 mm
0.0 mm
0.0 mm
0.0 mm
0.0 mm
0.0 mm
0.0 mm
0.0 mm
0.0 mm
0.0 mm
0.0 mm
0.0 mm

Радар за Bordenau

Ситен дъжд
Лек
Умерен
Силен
Много силен
Аве

Маркерът за локация обозначава Bordenau. Анимацията показва Радара за валежи за последния час, както и прогноза за 2h. Дъждът или лекият сняг може да са невидими за радара. Интензивността на валежите е обозначена с цветни кодове, вариращи от светлосиньо до оранжево.
Copyright 2022 Deutscher Wetterdienst / meteoblue.

Актуални сателитни и дъждовни снимки за Bordenau, Германия

Маркерът за локация е поставен върху Bordenau. [Още]

Сателитното изображение в реално време съчетава видимата светлина през деня с инфрачервеното лъчение през нощта. През нощта изображението не е тъмно, тъй като инфрачервеното лъчение може да открива температурни разлики. За съжаление ниските облаци и мъглата са трудни за разграничаване от температурите на земята и затова могат да бъдат почти невидими през нощта. Сателитните изображения на Meteosat за Европа се актуализират в реално време на всеки 5 минути. Изображенията GOES-16/GOES-17 (Северна и Южна Америка) и Химавари (Азия) се актуализират на всеки 10 минути.

Количеството на валежите се изчислява от радари и спътници. Оценките на валежите от сателити са по-малко точни през нощта, отколкото през деня. Оранжевите кръстове маркират локациите, на които са засечени светкавици (над Европа).

Всички права запазени 2022 EUMETSAT / meteoblue. Данни за светкавици, предоставени от nowcast.

Върнете се в началото